Time;durP1;ratioP1;P1;durP2;ratioP2;P2;SDS_P1;SDS_P2;PMS_P1;PMS_P2;Temp;Humidity;BMP_temperature;BMP_pressure;BME280_temperature;BME280_humidity;BME280_pressure;Samples;Min_cycle;Max_cycle;Signal;HPM_P1;HPM_P2
2021/08/17 00:00:49;;;;;;;5.90;3.85;;;;;;;25.82;33.89;99409.13;5045514;28;20021;-36
2021/08/17 00:03:15;;;;;;;7.45;3.90;;;;;;;25.75;34.16;99403.31;5033332;28;20108;-36
2021/08/17 00:05:43;;;;;;;6.03;3.90;;;;;;;25.15;35.29;99412.66;5044039;28;20060;-36
2021/08/17 00:08:09;;;;;;;5.13;3.97;;;;;;;25.35;34.91;99408.69;5039460;28;20481;-37
2021/08/17 00:10:34;;;;;;;8.00;3.90;;;;;;;25.38;35.14;99412.72;5036583;28;20037;-37
2021/08/17 00:13:00;;;;;;;11.98;4.15;;;;;;;25.81;34.41;99418.41;5046532;28;20409;-37
2021/08/17 00:15:25;;;;;;;8.02;3.67;;;;;;;25.17;35.81;99411.28;5033743;28;20028;-37
2021/08/17 00:17:51;;;;;;;5.45;3.83;;;;;;;24.68;36.85;99414.84;5042730;28;20124;-38
2021/08/17 00:20:16;;;;;;;5.93;4.20;;;;;;;24.66;37.31;99423.31;5040626;28;20028;-37
2021/08/17 00:22:42;;;;;;;6.70;3.47;;;;;;;24.66;37.35;99415.16;5035470;28;20100;-37
2021/08/17 00:25:08;;;;;;;6.47;3.70;;;;;;;24.67;37.40;99413.22;5050005;28;20032;-37
2021/08/17 00:27:33;;;;;;;6.78;3.60;;;;;;;24.68;37.67;99415.66;5039004;28;20495;-37
2021/08/17 00:29:59;;;;;;;4.70;3.50;;;;;;;24.74;37.71;99413.63;5045633;28;20021;-37
2021/08/17 00:32:25;;;;;;;5.78;3.70;;;;;;;24.90;37.33;99419.50;5045940;28;20025;-37
2021/08/17 00:34:51;;;;;;;5.88;3.33;;;;;;;25.15;37.04;99424.38;5038465;28;20021;-37
2021/08/17 00:37:17;;;;;;;7.60;4.30;;;;;;;24.58;38.26;99418.59;5052813;28;20485;-37
2021/08/17 00:39:43;;;;;;;7.50;3.60;;;;;;;24.42;38.68;99423.50;5053802;28;20100;-37
2021/08/17 00:42:08;;;;;;;7.30;3.53;;;;;;;24.57;38.45;99419.69;5044189;28;20022;-36
2021/08/17 00:44:34;;;;;;;5.30;3.90;;;;;;;24.77;37.99;99427.41;5033745;28;20401;-37
2021/08/17 00:46:59;;;;;;;6.28;3.42;;;;;;;24.29;39.20;99419.66;5033734;28;20544;-37
2021/08/17 00:49:26;;;;;;;6.22;3.60;;;;;;;24.28;39.26;99418.06;5049846;28;20017;-37
2021/08/17 00:51:52;;;;;;;6.18;3.85;;;;;;;24.34;39.24;99418.78;5040744;28;20032;-36
2021/08/17 00:54:18;;;;;;;5.45;3.30;;;;;;;24.43;39.08;99425.13;5042288;28;20017;-37
2021/08/17 00:56:43;;;;;;;4.95;3.33;;;;;;;24.50;39.13;99420.09;5047878;28;20302;-37
2021/08/17 00:59:09;;;;;;;7.28;3.22;;;;;;;23.95;40.58;99415.44;5050591;28;20040;-37
2021/08/17 01:01:35;;;;;;;5.25;3.40;;;;;;;23.92;41.14;99424.19;5038633;28;20063;-36
2021/08/17 01:04:01;;;;;;;4.35;3.50;;;;;;;23.97;40.93;99412.41;5044933;28;20080;-36
2021/08/17 01:06:27;;;;;;;5.63;3.55;;;;;;;24.56;39.62;99428.94;5045505;28;20049;-37
2021/08/17 01:08:52;;;;;;;7.28;3.90;;;;;;;23.93;41.04;99411.41;5036316;28;20030;-37
2021/08/17 01:11:17;;;;;;;6.15;3.88;;;;;;;23.81;41.29;99414.59;5049775;28;20440;-36
2021/08/17 01:13:43;;;;;;;4.60;3.47;;;;;;;23.69;41.71;99423.22;5039225;28;20036;-37
2021/08/17 01:16:09;;;;;;;5.45;3.40;;;;;;;24.05;40.82;99411.72;5043637;28;20021;-37
2021/08/17 01:18:34;;;;;;;6.38;3.70;;;;;;;23.92;41.16;99413.31;5046281;28;20385;-37
2021/08/17 01:21:00;;;;;;;5.90;3.47;;;;;;;23.62;42.10;99417.34;5036211;28;20036;-35
2021/08/17 01:23:27;;;;;;;5.15;3.75;;;;;;;23.87;41.14;99397.09;5047815;28;20105;-36
2021/08/17 01:25:52;;;;;;;4.78;3.47;;;;;;;24.29;40.50;99408.00;5032674;28;20014;-36
2021/08/17 01:28:18;;;;;;;4.85;3.50;;;;;;;24.59;39.77;99409.31;5032628;28;20163;-36
2021/08/17 01:30:44;;;;;;;6.00;3.63;;;;;;;24.11;40.90;99413.22;5047435;28;20176;-36
2021/08/17 01:33:09;;;;;;;5.63;3.80;;;;;;;24.11;40.96;99407.00;5036441;28;20063;-37
2021/08/17 01:35:35;;;;;;;10.75;3.70;;;;;;;23.89;41.58;99410.38;5047147;28;20063;-36
2021/08/17 01:38:04;;;;;;;5.10;3.42;;;;;;;24.08;40.88;99411.09;5039750;28;20119;-36
2021/08/17 01:40:29;;;;;;;;;;;;;;;23.86;41.79;99411.00;5040914;28;20021;-36
2021/08/17 01:42:56;;;;;;;4.90;3.38;;;;;;;23.97;41.70;99410.50;5032790;28;19913;-36
2021/08/17 01:45:21;;;;;;;5.05;3.42;;;;;;;24.20;41.49;99407.91;5049298;28;20040;-36
2021/08/17 01:47:48;;;;;;;7.57;4.15;;;;;;;24.11;41.62;99413.22;5032407;28;20382;-36
2021/08/17 01:50:13;;;;;;;6.78;3.60;;;;;;;23.69;42.39;99414.25;5032667;28;20022;-37
2021/08/17 01:52:39;;;;;;;4.93;3.55;;;;;;;23.57;42.98;99417.44;5032693;28;20021;-36
2021/08/17 01:55:07;;;;;;;8.65;3.50;;;;;;;23.44;43.49;99413.59;5033583;28;20017;-37
2021/08/17 01:57:33;;;;;;;5.80;3.67;;;;;;;23.52;43.30;99414.81;5047477;28;20024;-37
2021/08/17 01:59:58;;;;;;;5.57;3.90;;;;;;;23.98;42.33;99403.16;5040187;28;20032;-37
2021/08/17 02:02:23;;;;;;;5.03;3.55;;;;;;;23.65;43.54;99403.19;5040302;28;20029;-36
2021/08/17 02:04:49;;;;;;;7.97;3.95;;;;;;;23.67;43.42;99413.75;5046853;28;20067;-37
2021/08/17 02:07:14;;;;;;;7.40;3.55;;;;;;;23.43;43.73;99406.53;5034915;28;20056;-36
2021/08/17 02:09:40;;;;;;;5.68;3.45;;;;;;;23.69;43.48;99406.13;5045858;28;20466;-37
2021/08/17 02:12:05;;;;;;;6.53;3.75;;;;;;;24.00;42.61;99393.59;5040888;28;20039;-36
2021/08/17 02:14:31;;;;;;;5.97;3.70;;;;;;;24.32;42.07;99393.81;5038842;28;20025;-36
2021/08/17 02:16:56;;;;;;;5.05;3.75;;;;;;;24.41;41.77;99383.84;5031595;28;20191;-36
2021/08/17 02:19:22;;;;;;;6.15;3.90;;;;;;;24.58;41.47;99391.41;5047870;28;20018;-36
2021/08/17 02:21:47;;;;;;;6.40;3.83;;;;;;;24.57;41.36;99398.72;5038311;28;20410;-36
2021/08/17 02:24:13;;;;;;;5.50;4.07;;;;;;;24.29;42.09;99391.69;5041166;28;20374;-36
2021/08/17 02:26:38;;;;;;;5.15;3.63;;;;;;;24.48;41.97;99395.06;5043598;28;20028;-36
2021/08/17 02:29:04;;;;;;;7.03;3.60;;;;;;;24.71;41.63;99400.63;5032508;28;20033;-36
2021/08/17 02:31:30;;;;;;;5.93;3.95;;;;;;;24.76;41.08;99401.31;5035844;28;20024;-38
2021/08/17 02:33:55;;;;;;;6.78;3.72;;;;;;;24.65;41.88;99405.34;5051282;28;20055;-37
2021/08/17 02:36:21;;;;;;;6.28;3.88;;;;;;;24.62;41.72;99391.56;5040107;28;20029;-37
2021/08/17 02:38:46;;;;;;;6.20;3.80;;;;;;;24.59;41.87;99401.16;5046059;28;20032;-38
2021/08/17 02:41:12;;;;;;;5.25;3.78;;;;;;;24.59;41.86;99399.22;5034895;28;20048;-36
2021/08/17 02:43:37;;;;;;;7.25;4.07;;;;;;;24.25;42.68;99388.75;5051077;28;20028;-36
2021/08/17 02:46:03;;;;;;;7.93;4.07;;;;;;;24.23;42.76;99399.13;5042213;28;20022;-36
2021/08/17 02:48:28;;;;;;;6.88;4.15;;;;;;;24.29;42.52;99388.97;5042410;28;20021;-36
2021/08/17 02:50:53;;;;;;;8.18;4.15;;;;;;;24.52;41.93;99366.22;5035470;28;20060;-36
2021/08/17 02:53:19;;;;;;;7.55;3.88;;;;;;;24.85;41.34;99397.88;5047627;28;20005;-37
2021/08/17 02:55:44;;;;;;;5.65;4.10;;;;;;;24.40;42.63;99388.44;5037063;28;20021;-36
2021/08/17 02:58:10;;;;;;;6.80;3.75;;;;;;;24.27;43.21;99388.47;5041191;28;20033;-37
2021/08/17 03:00:36;;;;;;;6.07;4.05;;;;;;;24.34;43.58;99397.81;5044364;28;20126;-37
2021/08/17 03:03:03;;;;;;;5.13;3.90;;;;;;;24.72;42.30;99397.59;5034129;28;20029;-37
2021/08/17 03:05:28;;;;;;;6.93;3.90;;;;;;;24.34;43.12;99386.94;5045100;28;20068;-36
2021/08/17 03:07:55;;;;;;;7.65;4.15;;;;;;;24.31;43.40;99405.78;5037365;28;20045;-36
2021/08/17 03:10:22;;;;;;;7.07;4.18;;;;;;;24.38;43.69;99401.53;5038889;28;20029;-39
2021/08/17 03:12:47;;;;;;;10.30;6.43;;;;;;;24.59;43.07;99404.66;5044998;28;20115;-41
2021/08/17 03:15:13;;;;;;;6.40;4.20;;;;;;;24.33;44.05;99412.53;5033629;28;20026;-38
2021/08/17 03:17:39;;;;;;;8.00;3.78;;;;;;;24.09;44.78;99410.00;5046212;28;20104;-39
2021/08/17 03:20:07;;;;;;;9.23;4.03;;;;;;;23.95;45.36;99409.19;5040480;28;20469;-37
2021/08/17 03:22:33;;;;;;;10.10;4.10;;;;;;;24.11;44.98;99412.44;5038236;28;20071;-37
2021/08/17 03:24:58;;;;;;;6.47;4.07;;;;;;;24.05;45.14;99416.38;5046275;28;20032;-40
2021/08/17 03:27:24;;;;;;;5.55;4.00;;;;;;;23.95;45.39;99409.19;5031240;28;20386;-39
2021/08/17 03:29:49;;;;;;;7.60;4.10;;;;;;;23.83;45.92;99406.16;5038213;28;20013;-38
2021/08/17 03:32:15;;;;;;;7.20;4.20;;;;;;;24.11;45.16;99409.72;5039173;28;20029;-36
2021/08/17 03:34:40;;;;;;;7.68;4.40;;;;;;;24.31;44.87;99411.22;5044422;28;20020;-37
2021/08/17 03:37:06;;;;;;;10.93;4.78;;;;;;;24.14;45.44;99409.09;5034198;28;20524;-38
2021/08/17 03:39:31;;;;;;;15.55;8.05;;;;;;;24.35;45.08;99413.03;5045891;28;20465;-37
2021/08/17 03:41:56;;;;;;;12.02;7.15;;;;;;;24.37;45.07;99415.47;5038141;28;20017;-35
2021/08/17 03:44:22;;;;;;;13.52;7.75;;;;;;;24.67;44.00;99419.47;5037765;28;20021;-34
2021/08/17 03:46:47;;;;;;;6.93;4.72;;;;;;;24.62;44.53;99416.88;5044706;28;20025;-36
2021/08/17 03:49:13;;;;;;;8.25;4.63;;;;;;;24.41;44.97;99419.19;5033479;28;20513;-36
2021/08/17 03:51:38;;;;;;;8.38;4.30;;;;;;;24.33;45.16;99419.88;5044495;28;20104;-37
2021/08/17 03:54:04;;;;;;;9.75;4.75;;;;;;;24.55;44.68;99422.72;5029803;28;20119;-36
2021/08/17 03:56:29;;;;;;;6.43;4.40;;;;;;;24.86;43.58;99426.69;5042079;28;20025;-36
2021/08/17 03:58:55;;;;;;;5.78;4.22;;;;;;;24.73;44.40;99423.69;5033014;28;20505;-36
2021/08/17 04:01:20;;;;;;;10.75;4.60;;;;;;;24.57;45.15;99434.09;5046222;28;20452;-37
2021/08/17 04:03:45;;;;;;;10.45;5.05;;;;;;;24.85;44.65;99428.59;5036207;28;20021;-36
2021/08/17 04:06:11;;;;;;;9.35;4.72;;;;;;;25.08;43.92;99421.28;5039580;28;20049;-36
2021/08/17 04:08:39;;;;;;;6.88;4.35;;;;;;;25.22;44.13;99420.44;5043341;28;20485;-36
2021/08/17 04:11:05;;;;;;;7.75;4.15;;;;;;;25.34;44.08;99418.78;5033180;28;20106;-36
2021/08/17 04:13:30;;;;;;;13.45;4.35;;;;;;;25.69;43.07;99416.28;5045338;28;20071;-36
2021/08/17 04:15:55;;;;;;;8.02;4.75;;;;;;;25.76;43.08;99421.31;5037441;28;20083;-36
2021/08/17 04:18:21;;;;;;;6.93;4.50;;;;;;;26.05;42.63;99418.09;5036510;28;20045;-36
2021/08/17 04:20:46;;;;;;;6.78;4.38;;;;;;;25.93;42.69;99421.41;5043475;28;20450;-36
2021/08/17 04:23:12;;;;;;;10.50;4.93;;;;;;;26.21;42.44;99420.41;5049721;28;20040;-36
2021/08/17 04:25:37;;;;;;;7.95;4.40;;;;;;;26.57;41.82;99419.38;5044241;28;20025;-37
2021/08/17 04:28:04;;;;;;;9.30;4.55;;;;;;;27.11;40.56;99426.19;5030058;28;20177;-37
2021/08/17 04:30:29;;;;;;;7.47;4.43;;;;;;;26.82;40.75;99415.91;5040817;28;20049;-36
2021/08/17 04:32:55;;;;;;;8.98;4.78;;;;;;;26.61;41.15;99418.44;5033090;28;20028;-36
2021/08/17 04:35:20;;;;;;;10.82;4.72;;;;;;;27.00;40.32;99418.66;5045579;28;20048;-35
2021/08/17 04:37:46;;;;;;;9.38;4.45;;;;;;;27.08;40.22;99428.78;5036189;28;20020;-36
2021/08/17 04:40:13;;;;;;;8.32;4.97;;;;;;;27.38;39.88;99426.19;5038801;28;20452;-37
2021/08/17 04:42:38;;;;;;;6.25;4.35;;;;;;;27.34;38.60;99426.06;5029380;28;20033;-37
2021/08/17 04:45:04;;;;;;;9.15;4.63;;;;;;;27.97;38.67;99428.34;5045895;28;20037;-37
2021/08/17 04:47:30;;;;;;;11.32;4.93;;;;;;;28.29;38.34;99418.69;5033814;28;20031;-36
2021/08/17 04:49:56;;;;;;;8.45;4.57;;;;;;;28.38;38.00;99421.41;5041293;28;20468;-36
2021/08/17 04:52:21;;;;;;;8.38;4.53;;;;;;;27.86;38.99;99428.66;5040745;28;20025;-35
2021/08/17 04:54:47;;;;;;;8.15;4.60;;;;;;;27.62;39.58;99422.94;5034049;28;20037;-35
2021/08/17 04:57:13;;;;;;;11.68;5.40;;;;;;;27.92;39.25;99423.06;5045497;28;20025;-37
2021/08/17 04:59:39;;;;;;;7.38;4.93;;;;;;;28.06;39.06;99427.19;5033706;28;20544;-36
2021/08/17 05:02:05;;;;;;;8.20;4.90;;;;;;;27.86;39.34;99431.41;5038802;28;20121;-37
2021/08/17 05:04:30;;;;;;;9.75;4.95;;;;;;;27.44;40.11;99433.13;5040604;28;20029;-36
2021/08/17 05:06:55;;;;;;;7.32;4.78;;;;;;;27.22;40.70;99429.38;5031738;28;20060;-36
2021/08/17 05:09:22;;;;;;;9.20;4.82;;;;;;;27.34;40.40;99427.97;5044386;28;20113;-36
2021/08/17 05:11:47;;;;;;;7.13;4.97;;;;;;;28.21;38.71;99434.03;5036630;28;20056;-37
2021/08/17 05:14:13;;;;;;;11.07;4.70;;;;;;;27.65;39.95;99434.03;5041165;28;20521;-36
2021/08/17 05:16:38;;;;;;;10.40;5.88;;;;;;;27.57;40.23;99429.41;5045412;28;20359;-36
2021/08/17 05:19:04;;;;;;;7.28;5.50;;;;;;;27.28;40.87;99425.44;5034772;28;20033;-37
2021/08/17 05:21:29;;;;;;;7.38;4.63;;;;;;;28.07;39.44;99423.31;5047218;28;20052;-37
2021/08/17 05:23:56;;;;;;;6.47;4.95;;;;;;;28.39;38.54;99425.75;5039655;28;20032;-37
2021/08/17 05:26:23;;;;;;;9.43;5.18;;;;;;;28.35;38.45;99428.34;5040085;28;20525;-36
2021/08/17 05:28:48;;;;;;;13.45;5.30;;;;;;;29.12;37.04;99428.16;5046632;28;20101;-37
2021/08/17 05:31:14;;;;;;;7.78;5.10;;;;;;;29.26;36.84;99421.63;5034985;28;20029;-37
2021/08/17 05:33:39;;;;;;;7.70;5.78;;;;;;;29.73;36.04;99432.31;5045620;28;20017;-38
2021/08/17 05:36:05;;;;;;;8.93;5.13;;;;;;;28.96;37.31;99435.38;5040208;28;20032;-37
2021/08/17 05:38:30;;;;;;;11.52;5.47;;;;;;;29.40;36.32;99431.16;5041862;28;20020;-37
2021/08/17 05:40:55;;;;;;;9.90;5.30;;;;;;;29.65;36.15;99433.97;5050743;28;20029;-37
2021/08/17 05:43:21;;;;;;;10.80;5.18;;;;;;;29.91;35.15;99431.00;5048736;28;20021;-37
2021/08/17 05:45:46;;;;;;;10.27;5.10;;;;;;;29.91;35.65;99431.00;5050539;28;20028;-38
2021/08/17 05:48:12;;;;;;;8.68;5.38;;;;;;;29.68;35.88;99440.72;5049727;28;20455;-37
2021/08/17 05:50:37;;;;;;;9.15;5.18;;;;;;;29.70;35.72;99432.97;5036700;28;20022;-36
2021/08/17 05:53:03;;;;;;;8.48;5.28;;;;;;;29.55;35.96;99435.22;5046847;28;20021;-37
2021/08/17 05:55:28;;;;;;;9.27;5.30;;;;;;;30.28;34.12;99428.25;5034492;28;20017;-37
2021/08/17 05:57:55;;;;;;;9.93;5.43;;;;;;;30.07;34.89;99424.84;5042678;28;20354;-37
2021/08/17 06:00:20;;;;;;;8.18;4.88;;;;;;;30.24;34.95;99424.59;5041556;28;20017;-37
2021/08/17 06:02:46;;;;;;;8.13;4.90;;;;;;;29.56;35.85;99423.09;5035684;28;20040;-36
2021/08/17 06:05:11;;;;;;;7.57;4.60;;;;;;;29.74;36.00;99428.41;5032630;28;20021;-37
2021/08/17 06:07:37;;;;;;;6.90;4.40;;;;;;;30.09;35.33;99428.03;5044832;28;20053;-37
2021/08/17 06:10:04;;;;;;;9.90;4.90;;;;;;;29.74;35.61;99411.97;5037996;28;20028;-36
2021/08/17 06:12:29;;;;;;;7.47;4.78;;;;;;;30.21;34.75;99412.38;5037353;28;20135;-37
2021/08/17 06:14:55;;;;;;;8.00;4.72;;;;;;;31.03;33.42;99418.78;5046135;28;20013;-37
2021/08/17 06:17:20;;;;;;;8.50;4.97;;;;;;;31.53;32.56;99414.72;5033512;28;20035;-37
2021/08/17 06:19:46;;;;;;;7.82;4.82;;;;;;;31.78;31.90;99422.81;5043257;28;20381;-36
2021/08/17 06:22:11;;;;;;;7.22;4.78;;;;;;;32.16;31.25;99424.19;5038788;28;20040;-36
2021/08/17 06:24:37;;;;;;;7.43;4.43;;;;;;;32.72;30.54;99425.88;5036020;28;20029;-37
2021/08/17 06:27:02;;;;;;;8.68;5.25;;;;;;;33.48;29.24;99419.94;5032026;28;20029;-37
2021/08/17 06:29:28;;;;;;;12.07;4.90;;;;;;;33.77;28.23;99417.72;5049727;28;20024;-44
2021/08/17 06:31:53;;;;;;;12.73;5.57;;;;;;;33.22;29.42;99413.16;5042051;28;20099;-38
2021/08/17 06:34:19;;;;;;;10.18;5.70;;;;;;;33.04;29.33;99412.00;5040785;28;20053;-37
2021/08/17 06:36:44;;;;;;;11.35;5.50;;;;;;;32.33;29.79;99412.00;5035389;28;20029;-36
2021/08/17 06:39:10;;;;;;;9.75;5.10;;;;;;;32.90;29.17;99406.97;5045886;28;20025;-37
2021/08/17 06:41:35;;;;;;;14.38;5.88;;;;;;;32.49;29.53;99415.50;5034586;28;20028;-37
2021/08/17 06:44:01;;;;;;;10.18;5.40;;;;;;;32.49;29.73;99411.97;5040598;28;20547;-37
2021/08/17 06:46:27;;;;;;;10.65;5.63;;;;;;;32.21;29.74;99412.09;5041766;28;20024;-38
2021/08/17 06:48:53;;;;;;;7.30;5.45;;;;;;;33.05;28.77;99402.53;5033499;28;20580;-38
2021/08/17 06:51:19;;;;;;;15.43;5.40;;;;;;;33.45;27.93;99399.44;5045498;28;20021;-37
2021/08/17 06:53:44;;;;;;;11.20;5.53;;;;;;;33.27;28.27;99403.81;5035717;28;20044;-36
2021/08/17 06:56:10;;;;;;;8.48;5.32;;;;;;;33.15;28.34;99402.00;5041224;28;20087;-36
2021/08/17 06:58:35;;;;;;;11.57;5.50;;;;;;;33.42;27.90;99402.91;5037373;28;20044;-37
2021/08/17 07:01:02;;;;;;;13.07;5.60;;;;;;;34.16;26.95;99409.34;5040222;28;20029;-37
2021/08/17 07:03:27;;;;;;;11.57;5.70;;;;;;;34.08;26.44;99402.84;5037916;28;20021;-36
2021/08/17 07:05:53;;;;;;;11.40;5.80;;;;;;;33.08;26.85;99396.31;5035424;28;20099;-38
2021/08/17 07:08:18;;;;;;;10.65;5.78;;;;;;;33.27;27.42;99401.06;5038318;28;20025;-37
2021/08/17 07:10:44;;;;;;;11.63;5.65;;;;;;;33.66;26.80;99406.50;5037234;28;20124;-36
2021/08/17 07:13:10;;;;;;;9.93;5.60;;;;;;;34.00;26.93;99403.91;5039206;28;20469;-37
2021/08/17 07:15:35;;;;;;;10.23;5.43;;;;;;;34.00;26.82;99396.44;5040755;28;20473;-37
2021/08/17 07:18:01;;;;;;;13.57;5.68;;;;;;;33.81;26.80;99394.53;5037958;28;20098;-37
2021/08/17 07:20:26;;;;;;;11.45;6.00;;;;;;;33.57;27.40;99389.41;5048919;28;20481;-38
2021/08/17 07:22:51;;;;;;;11.73;6.18;;;;;;;33.65;26.29;99391.13;5048785;28;20021;-36
2021/08/17 07:25:17;;;;;;;10.63;5.70;;;;;;;33.43;25.82;99384.41;5030825;28;20086;-36
2021/08/17 07:27:43;;;;;;;10.00;6.10;;;;;;;33.41;26.45;99376.47;5035319;28;20051;-36
2021/08/17 07:30:12;;;;;;;10.73;6.00;;;;;;;34.18;24.48;99374.66;5039631;28;20030;-38
2021/08/17 07:32:41;;;;;;;13.05;5.93;;;;;;;33.88;24.54;99382.84;5042977;28;20032;-38
2021/08/17 07:35:08;;;;;;;10.68;5.75;;;;;;;34.72;23.72;99380.16;5032079;28;20072;-38
2021/08/17 07:37:34;;;;;;;9.10;5.88;;;;;;;35.96;22.14;99379.09;5044345;28;20125;-39
2021/08/17 07:39:59;;;;;;;8.20;5.55;;;;;;;35.67;21.86;99376.06;5037762;28;20464;-37
2021/08/17 07:42:24;;;;;;;9.20;5.50;;;;;;;35.59;22.59;99379.97;5040852;28;20034;-36
2021/08/17 07:44:50;;;;;;;8.35;5.30;;;;;;;35.73;21.93;99368.25;5031497;28;20033;-37
2021/08/17 07:47:15;;;;;;;9.82;5.13;;;;;;;35.77;21.84;99374.59;5043719;28;20021;-37
2021/08/17 07:49:41;;;;;;;10.15;4.95;;;;;;;36.22;20.98;99380.13;5036508;28;20029;-38
2021/08/17 07:52:07;;;;;;;10.70;5.30;;;;;;;36.54;20.32;99383.88;5040620;28;20032;-38
2021/08/17 07:54:32;;;;;;;8.82;5.22;;;;;;;36.49;20.11;99372.34;5036890;28;20027;-37
2021/08/17 07:56:58;;;;;;;10.15;5.28;;;;;;;36.53;20.70;99375.94;5032646;28;20025;-39
2021/08/17 07:59:24;;;;;;;6.82;4.95;;;;;;;36.77;19.66;99377.28;5045019;28;20463;-38
2021/08/17 08:01:49;;;;;;;9.85;5.20;;;;;;;36.73;19.79;99365.38;5035843;28;20032;-38
2021/08/17 08:04:15;;;;;;;10.73;5.25;;;;;;;36.23;19.77;99371.41;5037896;28;20032;-38
2021/08/17 08:06:40;;;;;;;16.70;5.43;;;;;;;36.53;20.34;99373.16;5028450;28;20045;-38
2021/08/17 08:09:05;;;;;;;8.48;5.55;;;;;;;36.54;20.04;99370.00;5044788;28;20545;-38
2021/08/17 08:11:31;;;;;;;7.60;5.03;;;;;;;36.57;19.67;99365.66;5033013;28;20023;-37
2021/08/17 08:13:57;;;;;;;12.05;5.60;;;;;;;36.76;20.14;99364.59;5040498;28;20079;-38
2021/08/17 08:16:23;;;;;;;10.77;5.50;;;;;;;36.39;20.32;99362.81;5040407;28;20035;-38
2021/08/17 08:18:49;;;;;;;9.40;5.10;;;;;;;36.52;20.53;99357.72;5033463;28;20025;-38
2021/08/17 08:21:14;;;;;;;7.93;5.35;;;;;;;36.71;20.16;99363.00;5045094;28;20362;-38
2021/08/17 08:23:40;;;;;;;11.90;5.38;;;;;;;37.02;20.10;99346.84;5034449;28;20032;-38
2021/08/17 08:26:05;;;;;;;11.15;5.80;;;;;;;37.11;19.88;99347.28;5038915;28;20021;-38
2021/08/17 08:28:31;;;;;;;11.32;5.57;;;;;;;37.11;19.85;99344.50;5028701;28;20025;-39
2021/08/17 08:30:56;;;;;;;9.73;5.97;;;;;;;37.62;19.41;99344.59;5044866;28;20025;-37
2021/08/17 08:33:22;;;;;;;9.60;5.50;;;;;;;37.10;19.31;99350.44;5032036;28;20009;-39
2021/08/17 08:35:47;;;;;;;9.85;5.25;;;;;;;36.83;19.61;99341.66;5041376;28;20500;-37
2021/08/17 08:38:13;;;;;;;7.22;5.55;;;;;;;37.09;19.23;99338.56;5031110;28;20037;-38
2021/08/17 08:40:38;;;;;;;11.25;5.70;;;;;;;37.09;19.06;99337.75;5042483;28;20040;-38
2021/08/17 08:43:04;;;;;;;8.23;5.32;;;;;;;37.77;18.47;99337.06;5031759;28;20486;-38
2021/08/17 08:45:29;;;;;;;8.35;5.35;;;;;;;38.00;17.59;99329.09;5042626;28;20047;-38
2021/08/17 08:47:55;;;;;;;11.48;5.60;;;;;;;37.93;18.51;99334.69;5039782;28;20090;-38
2021/08/17 08:50:20;;;;;;;11.98;5.68;;;;;;;37.68;18.97;99329.94;5030847;28;20029;-38
2021/08/17 08:52:46;;;;;;;8.80;5.65;;;;;;;37.58;19.28;99327.94;5047229;28;20040;-38
2021/08/17 08:55:12;;;;;;;9.10;5.70;;;;;;;37.65;18.69;99329.94;5035483;28;20099;-38
2021/08/17 08:57:37;;;;;;;9.27;5.68;;;;;;;37.93;19.00;99332.69;5046388;28;20025;-38
2021/08/17 09:00:05;;;;;;;9.10;5.78;;;;;;;38.13;18.66;99315.63;5041972;28;20473;-37
2021/08/17 09:02:31;;;;;;;9.77;5.32;;;;;;;37.72;18.51;99324.41;5039935;28;20062;-37
2021/08/17 09:04:57;;;;;;;10.02;5.70;;;;;;;37.75;18.65;99313.28;5048944;28;20424;-38
2021/08/17 09:07:42;;;;;;;12.20;5.50;;;;;;;37.47;19.01;99311.28;5035996;28;20502;-38
2021/08/17 09:10:13;;;;;;;11.75;5.70;;;;;;;37.93;18.71;99310.47;5042717;28;20536;-37
2021/08/17 09:12:58;;;;;;;7.00;5.50;;;;;;;37.63;18.95;99315.69;5046424;28;20511;-38
2021/08/17 09:15:30;;;;;;;8.98;5.53;;;;;;;37.92;19.01;99313.66;5035904;28;20104;-38
2021/08/17 09:18:11;;;;;;;7.25;5.47;;;;;;;38.13;18.82;99310.84;5052409;28;20029;-38
2021/08/17 09:20:46;;;;;;;8.10;5.55;;;;;;;37.93;18.93;99306.94;5038442;28;20370;-38
2021/08/17 09:23:28;;;;;;;10.57;6.13;;;;;;;38.13;18.66;99308.06;5048332;28;20031;-38
2021/08/17 09:25:59;;;;;;;13.00;7.47;;;;;;;38.22;18.35;99299.34;5033668;28;20447;-37
2021/08/17 09:28:36;;;;;;;13.85;6.45;;;;;;;38.48;18.16;99294.47;5031742;28;20408;-38
2021/08/17 09:31:03;;;;;;;17.17;6.35;;;;;;;37.81;18.66;99293.44;5048651;28;20029;-39
2021/08/17 09:33:39;;;;;;;9.63;6.35;;;;;;;37.12;19.39;99285.06;5031195;28;20114;-37
2021/08/17 09:36:05;;;;;;;13.98;5.78;;;;;;;36.86;19.62;99279.88;5041517;28;20048;-38
2021/08/17 09:38:31;;;;;;;8.93;6.28;;;;;;;36.53;19.68;99284.50;5039110;28;20508;-38
2021/08/17 09:40:57;;;;;;;8.63;6.38;;;;;;;36.72;19.76;99278.66;5048278;28;20029;-38
2021/08/17 09:43:24;;;;;;;9.43;6.40;;;;;;;36.29;20.33;99280.44;5034988;28;20021;-37
2021/08/17 09:45:49;;;;;;;10.43;6.45;;;;;;;36.29;20.27;99272.94;5043978;28;20025;-38
2021/08/17 09:48:16;;;;;;;13.10;6.95;;;;;;;37.04;19.91;99266.06;5031675;28;20033;-38
2021/08/17 09:50:42;;;;;;;10.60;6.72;;;;;;;37.09;19.51;99269.25;5045978;28;20036;-38
2021/08/17 09:53:18;;;;;;;15.05;8.13;;;;;;;37.22;19.73;99261.34;5034879;28;20025;-36
2021/08/17 09:55:56;;;;;;;12.57;7.60;;;;;;;37.40;19.63;99257.78;5045072;28;20111;-37
2021/08/17 09:58:27;;;;;;;14.27;7.78;;;;;;;37.85;19.49;99250.63;5042541;28;20139;-37
2021/08/17 10:00:58;;;;;;;10.35;7.75;;;;;;;38.34;19.17;99245.31;5035079;28;20095;-38
2021/08/17 10:03:24;;;;;;;12.10;8.65;;;;;;;38.68;18.68;99242.00;5034451;28;20028;-38
2021/08/17 10:05:49;;;;;;;12.43;8.43;;;;;;;38.87;17.72;99241.47;5043754;28;20033;-38
2021/08/17 10:08:16;;;;;;;10.65;7.65;;;;;;;38.60;18.45;99237.69;5041290;28;20033;-37
2021/08/17 10:10:44;;;;;;;14.50;10.40;;;;;;;37.77;18.56;99237.16;5036450;28;20051;-37
2021/08/17 10:13:11;;;;;;;14.73;10.75;;;;;;;37.14;19.57;99229.25;5047234;28;20451;-37
2021/08/17 10:15:37;;;;;;;15.18;9.68;;;;;;;37.49;19.37;99230.41;5036478;28;20046;-38
2021/08/17 10:18:02;;;;;;;13.05;9.15;;;;;;;36.64;20.57;99229.13;5042087;28;20025;-37
2021/08/17 10:20:28;;;;;;;11.98;9.07;;;;;;;36.78;20.29;99207.00;5043240;28;20091;-37
2021/08/17 10:22:53;;;;;;;12.25;9.15;;;;;;;37.25;20.31;99221.72;5029684;28;20036;-36
2021/08/17 10:25:19;;;;;;;11.05;8.32;;;;;;;37.57;19.85;99212.59;5048764;28;20401;-37
2021/08/17 10:27:44;;;;;;;12.35;9.52;;;;;;;37.93;19.91;99210.53;5030519;28;20029;-37
2021/08/17 10:30:21;;;;;;;11.57;9.35;;;;;;;37.74;19.99;99209.00;5040435;28;20024;-37
2021/08/17 10:32:59;;;;;;;10.90;8.30;;;;;;;37.36;20.02;99210.63;5035682;28;20080;-37
2021/08/17 10:35:33;;;;;;;13.30;8.50;;;;;;;37.68;20.09;99210.63;5034406;28;20033;-37
2021/08/17 10:38:08;;;;;;;11.95;8.40;;;;;;;37.93;20.21;99204.19;5041886;28;20045;-38
2021/08/17 10:40:50;;;;;;;11.80;8.35;;;;;;;37.71;19.64;99200.69;5044127;28;20165;-38
2021/08/17 10:43:16;;;;;;;11.05;8.57;;;;;;;36.92;20.45;99193.19;5033848;28;20435;-38
2021/08/17 10:45:51;;;;;;;9.90;8.68;;;;;;;36.39;21.12;99197.41;5042818;28;20168;-36
2021/08/17 10:48:46;;;;;;;11.45;9.05;;;;;;;36.13;20.56;99181.06;5041393;28;20021;-37
2021/08/17 10:51:18;;;;;;;13.18;9.50;;;;;;;36.25;20.65;99188.25;5033436;28;20512;-38
2021/08/17 10:53:43;;;;;;;10.45;8.77;;;;;;;35.96;21.16;99188.91;5043823;28;20401;-37
2021/08/17 10:56:12;;;;;;;15.02;9.02;;;;;;;35.97;21.29;99181.41;5039949;28;20025;-37
2021/08/17 10:58:42;;;;;;;12.27;9.05;;;;;;;36.94;20.07;99176.16;5035527;28;20422;-38
2021/08/17 11:01:07;;;;;;;12.02;8.90;;;;;;;36.84;20.63;99176.94;5046678;28;20025;-37
2021/08/17 11:03:43;;;;;;;10.63;8.40;;;;;;;36.44;20.70;99176.03;5035281;28;20400;-37
2021/08/17 11:06:09;;;;;;;16.20;9.05;;;;;;;36.64;20.57;99173.72;5040491;28;20501;-37
2021/08/17 11:08:36;;;;;;;11.48;9.20;;;;;;;36.27;20.27;99166.50;5041884;28;20078;-37
2021/08/17 11:11:04;;;;;;;14.15;8.32;;;;;;;36.51;20.26;99151.91;5033764;28;20045;-37
2021/08/17 11:13:30;;;;;;;12.15;8.85;;;;;;;37.37;19.65;99151.19;5046105;28;20020;-37
2021/08/17 11:16:09;;;;;;;12.75;9.18;;;;;;;37.01;19.72;99155.94;5039007;28;20052;-37
2021/08/17 11:19:10;;;;;;;12.87;9.10;;;;;;;36.90;20.11;99148.44;5035444;28;20033;-38
2021/08/17 11:21:40;;;;;;;11.25;8.82;;;;;;;36.71;19.97;99146.03;4988444;28;20038;-38
2021/08/17 11:24:09;;;;;;;13.43;9.05;;;;;;;36.45;20.09;99133.31;5032238;28;20045;-38
2021/08/17 11:26:35;;;;;;;9.73;8.73;;;;;;;36.29;21.02;99133.66;5036086;28;20040;-38
2021/08/17 11:29:00;;;;;;;14.95;9.27;;;;;;;36.72;20.13;99136.53;5044682;28;20390;-38